KNE629 OEJN-LTAI
Flight info
| Callsign | KNE629 |
|---|---|
| Flight time | N/A |
| Altitude | 38000 |
| Route | MIGDA L677 GESON DCT LAGVI Q777 RASDA M855 TOMBI |
| Aircraft | A20N/M-SDE2E3FGHIRWXY/LB1 |
Departure
| Time | N/A |
|---|---|
| Airport | King Abdulaziz International Airport (OEJN) |
Arrival
| Time | 2026-05-06 11:31 |
|---|---|
| Airport | Antalya International Airport (LTAI) |
| Time | Latitude | Longitude | Altitude | Speed | Heading |
|---|---|---|---|---|---|
| 2026-05-06 09:18 | 24.84100 | 37.51778 | 37831 ft | 432 kts | 322° |
| 2026-05-06 09:18 | 24.89024 | 37.48040 | 37831 ft | 432 kts | 322° |
| 2026-05-06 09:19 | 24.93978 | 37.44276 | 37831 ft | 432 kts | 322° |
| 2026-05-06 09:19 | 24.98951 | 37.40494 | 37832 ft | 432 kts | 322° |
| 2026-05-06 09:20 | 25.03922 | 37.36713 | 37835 ft | 427 kts | 322° |
| 2026-05-06 09:20 | 25.08758 | 37.33019 | 37846 ft | 422 kts | 321° |
| 2026-05-06 09:21 | 25.13569 | 37.29340 | 37867 ft | 418 kts | 321° |
| 2026-05-06 09:21 | 25.18347 | 37.25699 | 37891 ft | 417 kts | 321° |
| 2026-05-06 09:22 | 25.23081 | 37.22082 | 37915 ft | 417 kts | 321° |
| 2026-05-06 09:22 | 25.27850 | 37.18435 | 37937 ft | 417 kts | 321° |
| 2026-05-06 09:23 | 25.32579 | 37.14813 | 37952 ft | 417 kts | 321° |
| 2026-05-06 09:23 | 25.37346 | 37.11158 | 37960 ft | 417 kts | 321° |
| 2026-05-06 09:24 | 25.42090 | 37.07517 | 37963 ft | 417 kts | 321° |
| 2026-05-06 09:24 | 25.46866 | 37.03849 | 37966 ft | 417 kts | 321° |
| 2026-05-06 09:25 | 25.51612 | 37.00200 | 37965 ft | 417 kts | 321° |
| 2026-05-06 09:25 | 25.56369 | 36.96538 | 37965 ft | 418 kts | 321° |
| 2026-05-06 09:26 | 25.61142 | 36.92859 | 37965 ft | 418 kts | 321° |
| 2026-05-06 09:26 | 25.65884 | 36.89201 | 37966 ft | 418 kts | 321° |
| 2026-05-06 09:27 | 25.70647 | 36.85524 | 37965 ft | 418 kts | 321° |
| 2026-05-06 09:27 | 25.75385 | 36.81862 | 37965 ft | 418 kts | 321° |
| 2026-05-06 09:28 | 25.80149 | 36.78178 | 37965 ft | 418 kts | 321° |
| 2026-05-06 09:28 | 25.84920 | 36.74484 | 37965 ft | 418 kts | 321° |
| 2026-05-06 09:29 | 25.89667 | 36.70803 | 37965 ft | 418 kts | 321° |
| 2026-05-06 09:29 | 25.94416 | 36.67117 | 37965 ft | 418 kts | 321° |
| 2026-05-06 09:30 | 25.99171 | 36.63425 | 37964 ft | 418 kts | 321° |
| 2026-05-06 09:30 | 26.03936 | 36.59719 | 37964 ft | 418 kts | 321° |
| 2026-05-06 09:31 | 26.08688 | 36.56020 | 37965 ft | 418 kts | 321° |
| 2026-05-06 09:31 | 26.13440 | 36.52330 | 37965 ft | 418 kts | 321° |
| 2026-05-06 09:32 | 26.18008 | 36.48378 | 37967 ft | 415 kts | 315° |
| 2026-05-06 09:32 | 26.22153 | 36.44001 | 37966 ft | 413 kts | 311° |
| 2026-05-06 09:33 | 26.26144 | 36.39424 | 37965 ft | 413 kts | 311° |
| 2026-05-06 09:33 | 26.30110 | 36.34853 | 37966 ft | 413 kts | 310° |
| 2026-05-06 09:34 | 26.34070 | 36.30261 | 37966 ft | 412 kts | 310° |
| 2026-05-06 09:34 | 26.38051 | 36.25646 | 37965 ft | 412 kts | 310° |
| 2026-05-06 09:35 | 26.42011 | 36.21061 | 37965 ft | 412 kts | 310° |
| 2026-05-06 09:35 | 26.45992 | 36.16452 | 37965 ft | 412 kts | 310° |
| 2026-05-06 09:36 | 26.49964 | 36.11851 | 37965 ft | 413 kts | 310° |
| 2026-05-06 09:36 | 26.53930 | 36.07251 | 37965 ft | 412 kts | 310° |
| 2026-05-06 09:37 | 26.57900 | 36.02642 | 37965 ft | 413 kts | 310° |
| 2026-05-06 09:37 | 26.61872 | 35.98026 | 37966 ft | 412 kts | 310° |
| 2026-05-06 09:38 | 26.65817 | 35.93436 | 37965 ft | 412 kts | 310° |
| 2026-05-06 09:38 | 26.69782 | 35.88819 | 37965 ft | 412 kts | 310° |
| 2026-05-06 09:39 | 26.73751 | 35.84192 | 37966 ft | 412 kts | 310° |
| 2026-05-06 09:39 | 26.77693 | 35.79591 | 37965 ft | 413 kts | 310° |
| 2026-05-06 09:40 | 26.81654 | 35.74965 | 37965 ft | 413 kts | 310° |
| 2026-05-06 09:40 | 26.87596 | 35.68015 | 37968 ft | 413 kts | 310° |
| 2026-05-06 09:41 | 26.91538 | 35.63399 | 37973 ft | 411 kts | 310° |
| 2026-05-06 09:41 | 26.95471 | 35.58789 | 37980 ft | 408 kts | 310° |
| 2026-05-06 09:42 | 26.99357 | 35.54227 | 37986 ft | 406 kts | 310° |
| 2026-05-06 09:42 | 27.03249 | 35.49656 | 37990 ft | 403 kts | 310° |
| 2026-05-06 09:43 | 27.07071 | 35.45157 | 37992 ft | 401 kts | 310° |
| 2026-05-06 09:43 | 27.10920 | 35.40626 | 37994 ft | 401 kts | 310° |
| 2026-05-06 09:44 | 27.14769 | 35.36121 | 37994 ft | 401 kts | 310° |
| 2026-05-06 09:44 | 27.18611 | 35.31590 | 37995 ft | 401 kts | 309° |
| 2026-05-06 09:45 | 27.22427 | 35.27068 | 37994 ft | 400 kts | 309° |
| 2026-05-06 09:45 | 27.26238 | 35.22555 | 37994 ft | 401 kts | 309° |
| 2026-05-06 09:46 | 27.30077 | 35.18006 | 37993 ft | 401 kts | 309° |
| 2026-05-06 09:46 | 27.33889 | 35.13490 | 37994 ft | 401 kts | 309° |
| 2026-05-06 09:47 | 27.37717 | 35.08947 | 37993 ft | 401 kts | 309° |
| 2026-05-06 09:47 | 27.41542 | 35.04401 | 37993 ft | 400 kts | 309° |
| 2026-05-06 09:48 | 27.45374 | 34.99844 | 37994 ft | 401 kts | 309° |
| 2026-05-06 09:48 | 27.49186 | 34.95307 | 37996 ft | 402 kts | 309° |
| 2026-05-06 09:49 | 27.53034 | 34.90974 | 38000 ft | 405 kts | 312° |
| 2026-05-06 09:49 | 27.57132 | 34.86643 | 38005 ft | 406 kts | 312° |
| 2026-05-06 09:50 | 27.61253 | 34.82288 | 38010 ft | 407 kts | 312° |
| 2026-05-06 09:50 | 27.65359 | 34.77945 | 38015 ft | 408 kts | 312° |
| 2026-05-06 09:51 | 27.69500 | 34.73558 | 38019 ft | 408 kts | 312° |
| 2026-05-06 09:51 | 27.73600 | 34.69210 | 38019 ft | 408 kts | 312° |
| 2026-05-06 09:52 | 27.77732 | 34.64825 | 38020 ft | 408 kts | 312° |
| 2026-05-06 09:52 | 27.81856 | 34.60442 | 38020 ft | 408 kts | 312° |
| 2026-05-06 09:53 | 27.85991 | 34.56043 | 38020 ft | 408 kts | 312° |
| 2026-05-06 09:53 | 27.90085 | 34.51683 | 38020 ft | 408 kts | 312° |
| 2026-05-06 09:54 | 27.94220 | 34.47274 | 38020 ft | 408 kts | 312° |
| 2026-05-06 09:54 | 27.98312 | 34.42869 | 38019 ft | 407 kts | 310° |
| 2026-05-06 09:55 | 28.02080 | 34.38164 | 38019 ft | 404 kts | 306° |
| 2026-05-06 09:55 | 28.05632 | 34.33271 | 38022 ft | 403 kts | 305° |
| 2026-05-06 09:56 | 28.09181 | 34.28339 | 38021 ft | 403 kts | 305° |
| 2026-05-06 09:56 | 28.12744 | 34.23415 | 38020 ft | 403 kts | 305° |
| 2026-05-06 09:57 | 28.16318 | 34.18486 | 38020 ft | 403 kts | 305° |
| 2026-05-06 09:57 | 28.19854 | 34.13587 | 38020 ft | 403 kts | 305° |
| 2026-05-06 09:58 | 28.23412 | 34.08646 | 38020 ft | 403 kts | 305° |
| 2026-05-06 09:58 | 28.26963 | 34.03704 | 38020 ft | 403 kts | 305° |
| 2026-05-06 09:59 | 28.30498 | 33.98780 | 38020 ft | 403 kts | 305° |
| 2026-05-06 09:59 | 28.34022 | 33.93862 | 38020 ft | 403 kts | 305° |
| 2026-05-06 10:00 | 28.37537 | 33.88953 | 38020 ft | 403 kts | 305° |
| 2026-05-06 10:00 | 28.41075 | 33.84004 | 38020 ft | 403 kts | 305° |
| 2026-05-06 10:01 | 28.44629 | 33.79026 | 38020 ft | 403 kts | 305° |
| 2026-05-06 10:01 | 28.48151 | 33.74088 | 38020 ft | 403 kts | 305° |
| 2026-05-06 10:02 | 28.51715 | 33.69084 | 38020 ft | 403 kts | 305° |
| 2026-05-06 10:02 | 28.55244 | 33.64130 | 38020 ft | 403 kts | 305° |
| 2026-05-06 10:03 | 28.58794 | 33.59154 | 38020 ft | 403 kts | 305° |
| 2026-05-06 10:03 | 28.62314 | 33.54211 | 38020 ft | 403 kts | 305° |
| 2026-05-06 10:04 | 28.65859 | 33.49224 | 38020 ft | 403 kts | 305° |
| 2026-05-06 10:04 | 28.69385 | 33.44253 | 38020 ft | 403 kts | 305° |
| 2026-05-06 10:05 | 28.72910 | 33.39275 | 38020 ft | 403 kts | 305° |
| 2026-05-06 10:05 | 28.76422 | 33.34308 | 38022 ft | 403 kts | 304° |
| 2026-05-06 10:06 | 28.79929 | 33.29318 | 38020 ft | 403 kts | 304° |
| 2026-05-06 10:06 | 28.83456 | 33.24304 | 38020 ft | 403 kts | 304° |
| 2026-05-06 10:07 | 28.86973 | 33.19307 | 38020 ft | 403 kts | 304° |
| 2026-05-06 10:07 | 28.90490 | 33.14305 | 38020 ft | 403 kts | 304° |
| 2026-05-06 10:08 | 28.93989 | 33.09328 | 38020 ft | 403 kts | 304° |
| 2026-05-06 10:08 | 28.97518 | 33.04304 | 38020 ft | 404 kts | 304° |
| 2026-05-06 10:09 | 29.01032 | 32.99299 | 38021 ft | 403 kts | 303° |
| 2026-05-06 10:09 | 29.04516 | 32.94328 | 38020 ft | 402 kts | 303° |
| 2026-05-06 10:10 | 29.08013 | 32.89334 | 38020 ft | 400 kts | 302° |
| 2026-05-06 10:10 | 29.11480 | 32.84381 | 38013 ft | 398 kts | 302° |
| 2026-05-06 10:11 | 29.14929 | 32.79470 | 38004 ft | 397 kts | 302° |
| 2026-05-06 10:11 | 29.18374 | 32.74536 | 38003 ft | 397 kts | 301° |
| 2026-05-06 10:12 | 29.21819 | 32.69586 | 38014 ft | 397 kts | 301° |
| 2026-05-06 10:12 | 29.25234 | 32.64668 | 38036 ft | 397 kts | 301° |
| 2026-05-06 10:13 | 29.28697 | 32.59679 | 38064 ft | 397 kts | 301° |
| 2026-05-06 10:13 | 29.32109 | 32.54729 | 38086 ft | 396 kts | 301° |
| 2026-05-06 10:14 | 29.35550 | 32.49721 | 38097 ft | 396 kts | 301° |
| 2026-05-06 10:14 | 29.38952 | 32.44761 | 38101 ft | 397 kts | 301° |
| 2026-05-06 10:15 | 29.42339 | 32.39814 | 38103 ft | 396 kts | 301° |
| 2026-05-06 10:15 | 29.45739 | 32.34844 | 38104 ft | 396 kts | 301° |
| 2026-05-06 10:16 | 29.49143 | 32.29842 | 38103 ft | 396 kts | 301° |
| 2026-05-06 10:16 | 29.52518 | 32.24881 | 38102 ft | 396 kts | 301° |
| 2026-05-06 10:17 | 29.55912 | 32.19893 | 38103 ft | 396 kts | 301° |
| 2026-05-06 10:17 | 29.59296 | 32.14922 | 38103 ft | 396 kts | 301° |
| 2026-05-06 10:18 | 29.62678 | 32.09946 | 38103 ft | 396 kts | 301° |
| 2026-05-06 10:18 | 29.66076 | 32.04941 | 38103 ft | 396 kts | 301° |
| 2026-05-06 10:19 | 29.69431 | 31.99994 | 38102 ft | 396 kts | 301° |
| 2026-05-06 10:19 | 29.72811 | 31.95004 | 38102 ft | 396 kts | 301° |
| 2026-05-06 10:20 | 29.76210 | 31.89980 | 38103 ft | 396 kts | 301° |
| 2026-05-06 10:20 | 29.79540 | 31.85002 | 38102 ft | 395 kts | 300° |
| 2026-05-06 10:21 | 29.82790 | 31.79917 | 38103 ft | 395 kts | 300° |
| 2026-05-06 10:21 | 29.86088 | 31.74858 | 38101 ft | 398 kts | 303° |
| 2026-05-06 10:22 | 29.90148 | 31.70375 | 38103 ft | 410 kts | 314° |
| 2026-05-06 10:22 | 29.95094 | 31.66893 | 38103 ft | 426 kts | 326° |
| 2026-05-06 10:23 | 30.00802 | 31.64694 | 38102 ft | 443 kts | 339° |
| 2026-05-06 10:23 | 30.06881 | 31.63518 | 38103 ft | 447 kts | 341° |
| 2026-05-06 10:24 | 30.13051 | 31.62438 | 38102 ft | 447 kts | 341° |
| 2026-05-06 10:24 | 30.19130 | 31.61371 | 38103 ft | 446 kts | 341° |
| 2026-05-06 10:25 | 30.25284 | 31.60274 | 38103 ft | 446 kts | 341° |
| 2026-05-06 10:25 | 30.31407 | 31.59174 | 38103 ft | 447 kts | 341° |
| 2026-05-06 10:26 | 30.37513 | 31.58074 | 38102 ft | 447 kts | 341° |
| 2026-05-06 10:26 | 30.43664 | 31.56964 | 38103 ft | 446 kts | 341° |
| 2026-05-06 10:27 | 30.49785 | 31.55858 | 38103 ft | 446 kts | 341° |
| 2026-05-06 10:27 | 30.55907 | 31.54749 | 38101 ft | 446 kts | 341° |
| 2026-05-06 10:28 | 30.62033 | 31.53637 | 38103 ft | 447 kts | 341° |
| 2026-05-06 10:28 | 30.68045 | 31.52543 | 38102 ft | 446 kts | 341° |
| 2026-05-06 10:29 | 30.74181 | 31.51427 | 38103 ft | 447 kts | 341° |
| 2026-05-06 10:29 | 30.80311 | 31.50317 | 38102 ft | 447 kts | 341° |
| 2026-05-06 10:30 | 30.86411 | 31.49208 | 38102 ft | 447 kts | 341° |
| 2026-05-06 10:30 | 30.92544 | 31.48090 | 38103 ft | 446 kts | 341° |
| 2026-05-06 10:31 | 30.98631 | 31.46979 | 38103 ft | 447 kts | 340° |
| 2026-05-06 10:31 | 31.04779 | 31.45852 | 38102 ft | 447 kts | 339° |
| 2026-05-06 10:32 | 31.10885 | 31.44722 | 38102 ft | 447 kts | 339° |
| 2026-05-06 10:32 | 31.17034 | 31.43596 | 38104 ft | 447 kts | 339° |
| 2026-05-06 10:33 | 31.23178 | 31.42467 | 38103 ft | 446 kts | 339° |
| 2026-05-06 10:33 | 31.29272 | 31.41346 | 38102 ft | 447 kts | 339° |
| 2026-05-06 10:34 | 31.35411 | 31.40213 | 38102 ft | 446 kts | 339° |
| 2026-05-06 10:34 | 31.41515 | 31.39078 | 38103 ft | 446 kts | 339° |
| 2026-05-06 10:35 | 31.47688 | 31.37924 | 38102 ft | 447 kts | 339° |
| 2026-05-06 10:35 | 31.53830 | 31.36782 | 38102 ft | 448 kts | 340° |
| 2026-05-06 10:36 | 31.60041 | 31.35989 | 38102 ft | 454 kts | 343° |
| 2026-05-06 10:36 | 31.66309 | 31.35352 | 38102 ft | 454 kts | 343° |
| 2026-05-06 10:37 | 31.72583 | 31.34701 | 38105 ft | 452 kts | 343° |
| 2026-05-06 10:37 | 31.78820 | 31.34028 | 38103 ft | 452 kts | 343° |
| 2026-05-06 10:38 | 31.85056 | 31.33373 | 38103 ft | 452 kts | 343° |
| 2026-05-06 10:38 | 31.91328 | 31.32713 | 38103 ft | 452 kts | 343° |
| 2026-05-06 10:39 | 31.97545 | 31.32056 | 38103 ft | 452 kts | 343° |
| 2026-05-06 10:39 | 32.03828 | 31.31390 | 38102 ft | 452 kts | 343° |
| 2026-05-06 10:40 | 32.10049 | 31.30727 | 38103 ft | 453 kts | 343° |
| 2026-05-06 10:40 | 32.16293 | 31.30067 | 38105 ft | 453 kts | 343° |
| 2026-05-06 10:41 | 32.22543 | 31.29400 | 38116 ft | 453 kts | 343° |
| 2026-05-06 10:41 | 32.28832 | 31.28723 | 38122 ft | 453 kts | 343° |
| 2026-05-06 10:42 | 32.35067 | 31.28050 | 38126 ft | 452 kts | 343° |
| 2026-05-06 10:42 | 32.41360 | 31.27370 | 38129 ft | 452 kts | 343° |
| 2026-05-06 10:43 | 32.47593 | 31.26694 | 38128 ft | 452 kts | 342° |
| 2026-05-06 10:44 | 32.56692 | 31.24801 | 38130 ft | 437 kts | 333° |
| 2026-05-06 10:44 | 32.62364 | 31.22641 | 38129 ft | 428 kts | 327° |
| 2026-05-06 10:45 | 32.67762 | 31.19814 | 38128 ft | 420 kts | 323° |
| 2026-05-06 10:45 | 32.72999 | 31.16753 | 38129 ft | 420 kts | 322° |
| 2026-05-06 10:46 | 32.78200 | 31.13701 | 38130 ft | 420 kts | 322° |
| 2026-05-06 10:46 | 32.83423 | 31.10638 | 38128 ft | 420 kts | 322° |
| 2026-05-06 10:47 | 32.88673 | 31.07556 | 38129 ft | 421 kts | 322° |
| 2026-05-06 10:47 | 32.93884 | 31.04495 | 38129 ft | 421 kts | 322° |
| 2026-05-06 10:48 | 32.99152 | 31.01391 | 38126 ft | 423 kts | 322° |
| 2026-05-06 10:48 | 33.04534 | 30.98452 | 38124 ft | 436 kts | 329° |
| 2026-05-06 10:49 | 33.10400 | 30.96209 | 38124 ft | 452 kts | 338° |
| 2026-05-06 10:49 | 33.16724 | 30.94869 | 38127 ft | 465 kts | 346° |
| 2026-05-06 10:50 | 33.23187 | 30.94451 | 38121 ft | 470 kts | 351° |
| 2026-05-06 10:50 | 33.29736 | 30.94243 | 38106 ft | 471 kts | 351° |
| 2026-05-06 10:51 | 33.36238 | 30.94022 | 38093 ft | 470 kts | 351° |
| 2026-05-06 10:51 | 33.42757 | 30.93783 | 38085 ft | 470 kts | 351° |
| 2026-05-06 10:52 | 33.49269 | 30.93539 | 38081 ft | 470 kts | 351° |
| 2026-05-06 10:52 | 33.55777 | 30.93294 | 38078 ft | 470 kts | 351° |
| 2026-05-06 10:53 | 33.62381 | 30.93044 | 38077 ft | 470 kts | 351° |
| 2026-05-06 10:53 | 33.68951 | 30.92795 | 38077 ft | 470 kts | 351° |
| 2026-05-06 10:54 | 33.75463 | 30.92547 | 38076 ft | 470 kts | 351° |
| 2026-05-06 10:54 | 33.81974 | 30.92299 | 38076 ft | 470 kts | 351° |
| 2026-05-06 10:55 | 33.88478 | 30.92049 | 38075 ft | 470 kts | 351° |
| 2026-05-06 10:55 | 33.94982 | 30.91800 | 38075 ft | 470 kts | 351° |
| 2026-05-06 10:56 | 34.01513 | 30.91468 | 38077 ft | 469 kts | 349° |
| 2026-05-06 10:56 | 34.08000 | 30.91094 | 38077 ft | 469 kts | 349° |
| 2026-05-06 10:57 | 34.14507 | 30.90728 | 38077 ft | 469 kts | 349° |
| 2026-05-06 10:57 | 34.21076 | 30.90364 | 38076 ft | 469 kts | 349° |
| 2026-05-06 10:58 | 34.27584 | 30.90016 | 38076 ft | 469 kts | 350° |
| 2026-05-06 10:58 | 34.34155 | 30.89704 | 38076 ft | 470 kts | 350° |
| 2026-05-06 10:59 | 34.40638 | 30.89391 | 38077 ft | 470 kts | 350° |
| 2026-05-06 10:59 | 34.47136 | 30.89071 | 38076 ft | 469 kts | 350° |
| 2026-05-06 11:00 | 34.53667 | 30.88745 | 38076 ft | 470 kts | 350° |
| 2026-05-06 11:00 | 34.60149 | 30.88424 | 38076 ft | 470 kts | 350° |
| 2026-05-06 11:01 | 34.66656 | 30.88165 | 38077 ft | 471 kts | 351° |
| 2026-05-06 11:01 | 34.73225 | 30.87966 | 38076 ft | 471 kts | 351° |
| 2026-05-06 11:02 | 34.79714 | 30.87760 | 38077 ft | 470 kts | 351° |
| 2026-05-06 11:02 | 34.86221 | 30.87546 | 38077 ft | 470 kts | 351° |
| 2026-05-06 11:03 | 34.92764 | 30.87316 | 38073 ft | 473 kts | 352° |
| 2026-05-06 11:03 | 34.99356 | 30.87075 | 38076 ft | 478 kts | 355° |
| 2026-05-06 11:04 | 35.06004 | 30.86857 | 38077 ft | 477 kts | 356° |
| 2026-05-06 11:04 | 35.12584 | 30.86659 | 38075 ft | 476 kts | 356° |
| 2026-05-06 11:05 | 35.19204 | 30.86446 | 38073 ft | 477 kts | 356° |
| 2026-05-06 11:05 | 35.25790 | 30.86232 | 38069 ft | 476 kts | 356° |
| 2026-05-06 11:06 | 35.32427 | 30.86012 | 38063 ft | 476 kts | 356° |
| 2026-05-06 11:06 | 35.38999 | 30.85791 | 38058 ft | 476 kts | 356° |
| 2026-05-06 11:07 | 35.45613 | 30.85566 | 37989 ft | 473 kts | 356° |
| 2026-05-06 11:07 | 35.48874 | 30.85456 | 37603 ft | 470 kts | 356° |
| 2026-05-06 11:07 | 35.52129 | 30.85344 | 36888 ft | 471 kts | 356° |
| 2026-05-06 11:07 | 35.55156 | 30.85240 | 36236 ft | 471 kts | 356° |
| 2026-05-06 11:08 | 35.58457 | 30.85127 | 35526 ft | 471 kts | 356° |
| 2026-05-06 11:08 | 35.61700 | 30.85016 | 34828 ft | 470 kts | 356° |
| 2026-05-06 11:08 | 35.64945 | 30.84860 | 34128 ft | 470 kts | 355° |
| 2026-05-06 11:08 | 35.68200 | 30.84666 | 33425 ft | 469 kts | 355° |
| 2026-05-06 11:09 | 35.71461 | 30.84462 | 32710 ft | 470 kts | 355° |
| 2026-05-06 11:09 | 35.74691 | 30.84260 | 31989 ft | 471 kts | 355° |
| 2026-05-06 11:09 | 35.77929 | 30.84060 | 31270 ft | 472 kts | 355° |
| 2026-05-06 11:09 | 35.81222 | 30.83858 | 30535 ft | 470 kts | 355° |
| 2026-05-06 11:10 | 35.84443 | 30.83662 | 29815 ft | 469 kts | 355° |
| 2026-05-06 11:10 | 35.87709 | 30.83463 | 29082 ft | 467 kts | 355° |
| 2026-05-06 11:10 | 35.90923 | 30.83266 | 28359 ft | 465 kts | 355° |
| 2026-05-06 11:10 | 35.94117 | 30.83071 | 27637 ft | 463 kts | 355° |
| 2026-05-06 11:11 | 35.97327 | 30.82875 | 26908 ft | 461 kts | 355° |
| 2026-05-06 11:11 | 36.00494 | 30.82584 | 26183 ft | 458 kts | 351° |
| 2026-05-06 11:11 | 36.03686 | 30.82127 | 25447 ft | 458 kts | 350° |
| 2026-05-06 11:11 | 36.06849 | 30.81636 | 24720 ft | 459 kts | 350° |
| 2026-05-06 11:12 | 36.10027 | 30.81132 | 23989 ft | 460 kts | 350° |
| 2026-05-06 11:12 | 36.13208 | 30.80628 | 23258 ft | 461 kts | 350° |
| 2026-05-06 11:12 | 36.16367 | 30.80128 | 22534 ft | 462 kts | 350° |
| 2026-05-06 11:12 | 36.19585 | 30.79617 | 21799 ft | 462 kts | 350° |
| 2026-05-06 11:13 | 36.22772 | 30.79107 | 21069 ft | 463 kts | 350° |
| 2026-05-06 11:13 | 36.25933 | 30.78578 | 20348 ft | 464 kts | 350° |
| 2026-05-06 11:13 | 36.29155 | 30.78025 | 19620 ft | 464 kts | 349° |
| 2026-05-06 11:13 | 36.32284 | 30.77484 | 19138 ft | 454 kts | 349° |
| 2026-05-06 11:14 | 36.35359 | 30.76951 | 18885 ft | 436 kts | 349° |
| 2026-05-06 11:14 | 36.38291 | 30.76442 | 18552 ft | 423 kts | 349° |
| 2026-05-06 11:14 | 36.41198 | 30.75933 | 17734 ft | 423 kts | 349° |
| 2026-05-06 11:14 | 36.44100 | 30.75421 | 16917 ft | 421 kts | 349° |
| 2026-05-06 11:15 | 36.46994 | 30.74912 | 16238 ft | 417 kts | 349° |
| 2026-05-06 11:15 | 36.49843 | 30.74412 | 15568 ft | 412 kts | 349° |
| 2026-05-06 11:15 | 36.52652 | 30.73918 | 14889 ft | 407 kts | 349° |
| 2026-05-06 11:15 | 36.55432 | 30.73429 | 14213 ft | 403 kts | 349° |
| 2026-05-06 11:16 | 36.58165 | 30.72949 | 13565 ft | 398 kts | 349° |
| 2026-05-06 11:16 | 36.60885 | 30.72470 | 13076 ft | 389 kts | 349° |
| 2026-05-06 11:16 | 36.63525 | 30.72006 | 12599 ft | 381 kts | 349° |
| 2026-05-06 11:16 | 36.66147 | 30.71544 | 12124 ft | 373 kts | 349° |
| 2026-05-06 11:17 | 36.68673 | 30.71099 | 11679 ft | 366 kts | 349° |
| 2026-05-06 11:17 | 36.71168 | 30.70659 | 11249 ft | 355 kts | 349° |
| 2026-05-06 11:17 | 36.73570 | 30.70235 | 10667 ft | 346 kts | 349° |
| 2026-05-06 11:17 | 36.75910 | 30.69822 | 10009 ft | 337 kts | 349° |
| 2026-05-06 11:18 | 36.78160 | 30.69426 | 9707 ft | 310 kts | 349° |
| 2026-05-06 11:18 | 36.80229 | 30.69063 | 9707 ft | 292 kts | 349° |
| 2026-05-06 11:18 | 36.82230 | 30.68706 | 9715 ft | 290 kts | 349° |
| 2026-05-06 11:18 | 36.84205 | 30.68353 | 9447 ft | 287 kts | 349° |
| 2026-05-06 11:19 | 36.86172 | 30.68001 | 9153 ft | 285 kts | 349° |
| 2026-05-06 11:19 | 36.88156 | 30.67646 | 9028 ft | 289 kts | 349° |
| 2026-05-06 11:19 | 36.90154 | 30.67290 | 8902 ft | 289 kts | 349° |
| 2026-05-06 11:19 | 36.92159 | 30.66934 | 8776 ft | 289 kts | 349° |
| 2026-05-06 11:20 | 36.94142 | 30.66582 | 8586 ft | 286 kts | 349° |
| 2026-05-06 11:20 | 36.96090 | 30.66235 | 8171 ft | 286 kts | 349° |
| 2026-05-06 11:20 | 36.98058 | 30.65883 | 7738 ft | 287 kts | 349° |
| 2026-05-06 11:20 | 37.00045 | 30.65527 | 7312 ft | 287 kts | 349° |
| 2026-05-06 11:21 | 37.01940 | 30.65188 | 7053 ft | 285 kts | 350° |
| 2026-05-06 11:21 | 37.03904 | 30.64839 | 7027 ft | 289 kts | 350° |
| 2026-05-06 11:21 | 37.05896 | 30.64487 | 7022 ft | 291 kts | 352° |
| 2026-05-06 11:21 | 37.07939 | 30.64331 | 7018 ft | 292 kts | 0° |
| 2026-05-06 11:22 | 37.09953 | 30.64488 | 7019 ft | 293 kts | 5° |
| 2026-05-06 11:22 | 37.11977 | 30.64759 | 6944 ft | 289 kts | 8° |
| 2026-05-06 11:22 | 37.13863 | 30.65481 | 6607 ft | 284 kts | 33° |
| 2026-05-06 11:22 | 37.15256 | 30.67147 | 6428 ft | 269 kts | 62° |
| 2026-05-06 11:23 | 37.15840 | 30.69283 | 6257 ft | 253 kts | 87° |
| 2026-05-06 11:23 | 37.15919 | 30.71436 | 6101 ft | 242 kts | 94° |
| 2026-05-06 11:23 | 37.15899 | 30.73468 | 5877 ft | 228 kts | 95° |
| 2026-05-06 11:23 | 37.15868 | 30.75406 | 5576 ft | 218 kts | 95° |
| 2026-05-06 11:24 | 37.15837 | 30.77284 | 5273 ft | 207 kts | 95° |
| 2026-05-06 11:24 | 37.15712 | 30.78965 | 5123 ft | 185 kts | 114° |
| 2026-05-06 11:24 | 37.14912 | 30.80110 | 4783 ft | 175 kts | 153° |
| 2026-05-06 11:24 | 37.13759 | 30.80559 | 4475 ft | 171 kts | 169° |
| 2026-05-06 11:25 | 37.12607 | 30.80827 | 4215 ft | 167 kts | 170° |
| 2026-05-06 11:25 | 37.11460 | 30.81102 | 3990 ft | 167 kts | 169° |
| 2026-05-06 11:25 | 37.10324 | 30.81418 | 3780 ft | 167 kts | 169° |
| 2026-05-06 11:25 | 37.09184 | 30.81617 | 3576 ft | 166 kts | 176° |
| 2026-05-06 11:26 | 37.08024 | 30.81637 | 3372 ft | 166 kts | 182° |
| 2026-05-06 11:26 | 37.06871 | 30.81551 | 3166 ft | 166 kts | 185° |
| 2026-05-06 11:26 | 37.05734 | 30.81421 | 2958 ft | 165 kts | 186° |
| 2026-05-06 11:26 | 37.04589 | 30.81270 | 2744 ft | 165 kts | 186° |
| 2026-05-06 11:27 | 37.03453 | 30.81115 | 2525 ft | 164 kts | 186° |
| 2026-05-06 11:27 | 37.02312 | 30.80956 | 2301 ft | 164 kts | 186° |
| 2026-05-06 11:27 | 37.01210 | 30.80803 | 2103 ft | 154 kts | 186° |
| 2026-05-06 11:27 | 37.00181 | 30.80661 | 1880 ft | 139 kts | 186° |
| 2026-05-06 11:28 | 36.99267 | 30.80535 | 1667 ft | 128 kts | 186° |
| 2026-05-06 11:28 | 36.98380 | 30.80414 | 1504 ft | 128 kts | 186° |
| 2026-05-06 11:28 | 36.97492 | 30.80292 | 1342 ft | 128 kts | 186° |
| 2026-05-06 11:28 | 36.96617 | 30.80171 | 1181 ft | 127 kts | 186° |
| 2026-05-06 11:29 | 36.95734 | 30.80050 | 1015 ft | 127 kts | 186° |
| 2026-05-06 11:29 | 36.94865 | 30.79927 | 853 ft | 127 kts | 186° |
| 2026-05-06 11:29 | 36.93988 | 30.79809 | 678 ft | 126 kts | 185° |
| 2026-05-06 11:29 | 36.93121 | 30.79693 | 506 ft | 126 kts | 185° |
| 2026-05-06 11:30 | 36.92246 | 30.79573 | 341 ft | 125 kts | 185° |
| 2026-05-06 11:30 | 36.91380 | 30.79452 | 177 ft | 124 kts | 185° |
| 2026-05-06 11:30 | 36.90637 | 30.79350 | 176 ft | 84 kts | 186° |
| 2026-05-06 11:30 | 36.90202 | 30.79289 | 176 ft | 51 kts | 186° |
| 2026-05-06 11:31 | 36.89870 | 30.79244 | 177 ft | 45 kts | 186° |
| 2026-05-06 11:31 | 36.89597 | 30.79231 | 176 ft | 32 kts | 164° |
| 2026-05-06 11:31 | 36.89461 | 30.79304 | 176 ft | 12 kts | 155° |
| 2026-05-06 11:31 | 36.89384 | 30.79351 | 176 ft | 13 kts | 153° |
| 2026-05-06 11:32 | 36.89315 | 30.79418 | 176 ft | 13 kts | 105° |
| 2026-05-06 11:32 | 36.89304 | 30.79531 | 176 ft | 13 kts | 95° |
| 2026-05-06 11:32 | 36.89302 | 30.79638 | 176 ft | 6 kts | 43° |
| 2026-05-06 11:32 | 36.89328 | 30.79646 | 176 ft | 6 kts | 7° |
| 2026-05-06 11:33 | 36.89372 | 30.79651 | 176 ft | 1 kts | 6° |